Time;durP1;ratioP1;P1;durP2;ratioP2;P2;SDS_P1;SDS_P2;PMS_P1;PMS_P2;Temp;Humidity;BMP_temperature;BMP_pressure;BME280_temperature;BME280_humidity;BME280_pressure;Samples;Min_cycle;Max_cycle;Signal;HPM_P1;HPM_P2
2021/12/23 00:01:21;;;;;;;39.55;29.10;;;-0.80;99.90;;;;;;5004090;28;20040;-84
2021/12/23 00:03:46;;;;;;;40.17;29.08;;;-0.70;99.90;;;;;;4983556;28;20212;-84
2021/12/23 00:06:12;;;;;;;42.00;30.83;;;-0.70;99.90;;;;;;5003487;28;20656;-84
2021/12/23 00:08:38;;;;;;;40.95;28.80;;;-0.70;99.90;;;;;;4997141;28;20047;-84
2021/12/23 00:11:04;;;;;;;40.65;28.70;;;-0.70;99.90;;;;;;5006435;28;20046;-84
2021/12/23 00:13:33;;;;;;;39.80;29.73;;;-0.70;99.90;;;;;;5008703;28;20116;-84
2021/12/23 00:23:56;;;;;;;40.38;27.95;;;-0.80;99.90;;;;;;5004148;28;20055;-84
2021/12/23 00:26:22;;;;;;;37.65;27.40;;;-0.70;99.90;;;;;;5010153;28;20093;-84
2021/12/23 00:28:48;;;;;;;39.20;26.55;;;-0.80;99.90;;;;;;4998350;28;20496;-84
2021/12/23 00:31:16;;;;;;;38.47;28.33;;;-0.80;99.90;;;;;;4966325;28;20059;-84
2021/12/23 00:33:42;;;;;;;38.45;28.33;;;-0.70;99.90;;;;;;4981881;28;20160;-84
2021/12/23 00:36:10;;;;;;;37.33;28.17;;;-0.60;99.90;;;;;;4978314;28;20108;-83
2021/12/23 00:38:42;;;;;;;41.80;29.05;;;-0.60;99.90;;;;;;4977715;28;20056;-83
2021/12/23 00:41:09;;;;;;;39.35;28.92;;;-0.60;99.90;;;;;;4970135;28;20521;-84
2021/12/23 00:43:35;;;;;;;38.47;26.48;;;-0.60;99.90;;;;;;4981562;28;20097;-82
2021/12/23 00:46:03;;;;;;;45.70;26.55;;;-0.60;99.90;;;;;;4987994;28;20873;-84
2021/12/23 00:48:30;;;;;;;35.08;25.83;;;-0.60;99.90;;;;;;4980196;28;20165;-84
2021/12/23 00:50:57;;;;;;;37.25;25.15;;;-0.50;99.90;;;;;;4986145;28;20036;-84
2021/12/23 00:53:23;;;;;;;35.85;25.33;;;-0.60;99.90;;;;;;4964235;28;20051;-84
2021/12/23 00:55:53;;;;;;;36.22;26.13;;;-0.50;99.90;;;;;;4984798;28;20866;-84
2021/12/23 00:58:21;;;;;;;34.35;25.15;;;-0.50;99.90;;;;;;4984135;28;20540;-83
2021/12/23 01:00:47;;;;;;;36.30;25.45;;;-0.40;99.90;;;;;;4972045;28;20078;-84
2021/12/23 01:03:14;;;;;;;36.25;25.40;;;-0.40;99.90;;;;;;4963540;28;20059;-84
2021/12/23 01:05:40;;;;;;;37.17;24.98;;;-0.40;99.90;;;;;;4987908;28;20248;-83
2021/12/23 01:08:06;;;;;;;32.63;24.17;;;-0.40;99.90;;;;;;4980586;28;20264;-83
2021/12/23 01:10:33;;;;;;;36.28;24.92;;;-0.40;99.90;;;;;;4964816;28;20055;-83
2021/12/23 01:13:02;;;;;;;35.50;24.45;;;-0.50;99.90;;;;;;4961991;28;20522;-83
2021/12/23 01:18:19;;;;;;;34.40;24.20;;;-0.50;99.90;;;;;;4982050;28;20109;-83
2021/12/23 01:20:54;;;;;;;33.47;23.50;;;-0.40;99.90;;;;;;4980687;28;20066;-84
2021/12/23 01:23:22;;;;;;;37.10;24.30;;;-0.40;99.90;;;;;;4986640;28;20798;-84
2021/12/23 01:25:50;;;;;;;33.90;23.85;;;-0.40;99.90;;;;;;4979382;28;20052;-83
2021/12/23 01:28:17;;;;;;;38.67;25.98;;;-0.30;99.90;;;;;;4984094;28;20453;-83
2021/12/23 01:30:43;;;;;;;36.50;24.90;;;-0.30;99.90;;;;;;5004786;28;20678;-84
2021/12/23 01:33:10;;;;;;;38.63;24.67;;;-0.40;99.90;;;;;;5000723;28;20083;-84
2021/12/23 01:35:38;;;;;;;57.38;26.80;;;-0.40;99.90;;;;;;5001564;28;20820;-83
2021/12/23 01:38:04;;;;;;;38.45;26.00;;;-0.40;99.90;;;;;;4979361;28;20100;-83
2021/12/23 01:40:30;;;;;;;45.67;25.85;;;-0.30;99.90;;;;;;4998067;28;20386;-84
2021/12/23 01:42:57;;;;;;;37.67;25.13;;;-0.20;99.90;;;;;;4982953;28;20236;-84
2021/12/23 01:45:29;;;;;;;36.30;24.48;;;-0.30;99.90;;;;;;5000309;28;20835;-84
2021/12/23 01:47:56;;;;;;;39.67;25.25;;;-0.30;99.90;;;;;;4999158;28;20082;-84
2021/12/23 01:50:27;;;;;;;40.53;24.35;;;-0.20;99.90;;;;;;5003168;28;20158;-83
2021/12/23 01:52:54;;;;;;;36.20;24.33;;;-0.20;99.90;;;;;;4965119;28;20617;-83
2021/12/23 01:55:19;;;;;;;41.10;24.23;;;-0.20;99.90;;;;;;5004172;28;20047;-84
2021/12/23 01:57:47;;;;;;;36.88;24.17;;;-0.20;99.90;;;;;;4997285;28;20040;-84
2021/12/23 02:00:17;;;;;;;37.67;23.90;;;-0.20;99.90;;;;;;5004247;28;20564;-83
2021/12/23 02:02:43;;;;;;;35.75;24.13;;;-0.30;99.90;;;;;;5003445;28;20538;-84
2021/12/23 02:05:10;;;;;;;36.88;23.27;;;-0.30;99.90;;;;;;4999056;28;20095;-83
2021/12/23 02:07:37;;;;;;;35.13;23.08;;;-0.30;99.90;;;;;;4980231;28;20039;-83
2021/12/23 02:10:04;;;;;;;32.17;23.00;;;-0.30;99.90;;;;;;5003610;28;20047;-83
2021/12/23 02:12:30;;;;;;;37.30;23.48;;;-0.30;99.90;;;;;;5005349;28;20055;-84
2021/12/23 02:14:56;;;;;;;36.55;22.98;;;-0.40;99.90;;;;;;5002542;28;20742;-84
2021/12/23 02:17:21;;;;;;;34.42;22.65;;;-0.30;99.90;;;;;;4999587;28;20075;-83
2021/12/23 02:19:51;;;;;;;35.00;22.98;;;-0.40;99.90;;;;;;4986500;28;20046;-84
2021/12/23 02:22:17;;;;;;;36.50;22.67;;;-0.40;99.90;;;;;;4999988;28;20491;-84
2021/12/23 02:24:43;;;;;;;31.52;20.88;;;-0.40;99.90;;;;;;4980562;28;20495;-83
2021/12/23 02:27:11;;;;;;;30.33;21.23;;;-0.40;99.90;;;;;;4997107;28;20043;-83
2021/12/23 02:29:37;;;;;;;29.92;20.85;;;-0.40;99.90;;;;;;4997895;28;20051;-84
2021/12/23 02:32:03;;;;;;;32.85;21.38;;;-0.40;99.90;;;;;;4998788;28;20595;-83
2021/12/23 02:34:29;;;;;;;32.13;21.45;;;-0.40;99.90;;;;;;5001725;28;20568;-83
2021/12/23 02:36:57;;;;;;;32.42;22.38;;;-0.40;99.90;;;;;;4973133;28;20042;-83
2021/12/23 02:39:26;;;;;;;34.30;21.88;;;-0.40;99.90;;;;;;4974549;28;20073;-83
2021/12/23 02:41:52;;;;;;;34.22;22.67;;;-0.40;99.90;;;;;;5001217;28;20042;-83
2021/12/23 02:44:20;;;;;;;33.90;22.13;;;-0.50;99.90;;;;;;5012554;28;20039;-83
2021/12/23 02:46:46;;;;;;;31.35;22.77;;;-0.30;99.90;;;;;;5002270;28;20075;-83
2021/12/23 02:49:12;;;;;;;32.10;23.05;;;-0.30;99.90;;;;;;5010806;28;20721;-83
2021/12/23 02:51:38;;;;;;;32.25;22.15;;;-0.40;99.90;;;;;;5001506;28;20047;-83
2021/12/23 02:54:05;;;;;;;30.20;22.30;;;-0.30;99.90;;;;;;5006613;28;20206;-84
2021/12/23 02:56:31;;;;;;;29.45;21.05;;;-0.40;99.90;;;;;;5004262;28;21052;-83
2021/12/23 02:58:57;;;;;;;31.02;21.77;;;-0.40;99.90;;;;;;4999245;28;20054;-83
2021/12/23 03:01:24;;;;;;;30.23;22.35;;;-0.30;99.90;;;;;;5004976;28;20451;-84
2021/12/23 03:03:50;;;;;;;32.80;22.33;;;-0.30;99.90;;;;;;4981618;28;20532;-84
2021/12/23 03:06:18;;;;;;;31.65;22.38;;;-0.20;99.90;;;;;;4997607;28;20241;-83
2021/12/23 03:08:53;;;;;;;32.45;22.05;;;-0.30;99.90;;;;;;5024233;28;20086;-83
2021/12/23 03:11:22;;;;;;;31.60;22.20;;;-0.30;99.90;;;;;;5004402;28;20054;-83
2021/12/23 03:13:48;;;;;;;30.73;21.98;;;-0.30;99.90;;;;;;5004624;28;20047;-84
2021/12/23 03:16:19;;;;;;;29.33;22.30;;;-0.30;99.90;;;;;;4968856;28;20737;-84
2021/12/23 03:18:45;;;;;;;30.80;22.15;;;-0.30;99.90;;;;;;5001806;28;20740;-84
2021/12/23 03:21:10;;;;;;;33.53;23.13;;;-0.40;99.90;;;;;;4983805;28;20039;-83
2021/12/23 03:23:37;;;;;;;32.38;22.38;;;-0.30;99.90;;;;;;5002750;28;20040;-84
2021/12/23 03:26:04;;;;;;;26.98;20.33;;;-0.30;99.90;;;;;;5005777;28;20546;-84
2021/12/23 03:28:30;;;;;;;29.95;21.40;;;-0.40;99.90;;;;;;4987134;28;20215;-84
2021/12/23 03:30:57;;;;;;;30.77;20.83;;;-0.40;99.90;;;;;;5008518;28;20063;-84
2021/12/23 03:33:23;;;;;;;31.08;21.67;;;-0.30;99.90;;;;;;5009669;28;20690;-84
2021/12/23 03:35:50;;;;;;;27.02;19.75;;;-0.30;99.90;;;;;;5000829;28;22221;-84
2021/12/23 03:38:16;;;;;;;32.05;20.80;;;-0.40;99.90;;;;;;4984648;28;20047;-84
2021/12/23 03:40:43;;;;;;;29.38;20.92;;;-0.40;99.90;;;;;;4981833;28;20051;-83
2021/12/23 03:43:11;;;;;;;29.10;21.00;;;-0.30;99.90;;;;;;5004916;28;20051;-83
2021/12/23 03:45:38;;;;;;;33.38;21.00;;;-0.40;99.90;;;;;;4999203;28;20970;-84
2021/12/23 03:48:04;;;;;;;31.00;20.65;;;-0.40;99.90;;;;;;4982240;28;20047;-83
2021/12/23 03:50:30;;;;;;;33.33;22.98;;;-0.30;99.90;;;;;;5004212;28;20109;-84
2021/12/23 03:52:57;;;;;;;32.65;22.15;;;-0.30;99.90;;;;;;5010841;28;20087;-83
2021/12/23 03:55:23;;;;;;;30.48;21.50;;;-0.20;99.90;;;;;;5004354;28;20933;-83
2021/12/23 03:57:48;;;;;;;31.35;21.15;;;-0.20;99.90;;;;;;5004225;28;20764;-83
2021/12/23 04:00:18;;;;;;;28.58;21.05;;;-0.20;99.90;;;;;;5006813;28;20138;-83
2021/12/23 04:02:45;;;;;;;30.45;22.58;;;-0.20;99.90;;;;;;4996149;28;20044;-84
2021/12/23 04:05:11;;;;;;;29.23;21.70;;;-0.20;99.90;;;;;;4998482;28;20496;-82
2021/12/23 04:07:40;;;;;;;31.13;21.20;;;-0.20;99.90;;;;;;5013197;28;20078;-83
2021/12/23 04:10:08;;;;;;;30.83;20.60;;;-0.10;99.90;;;;;;4979309;28;20450;-83
2021/12/23 04:12:34;;;;;;;29.35;21.10;;;-0.20;99.90;;;;;;5004624;28;20293;-83
2021/12/23 04:15:00;;;;;;;30.63;21.13;;;-0.10;99.90;;;;;;5002919;28;20086;-83
2021/12/23 04:17:25;;;;;;;30.55;20.50;;;-0.20;99.90;;;;;;5003418;28;20102;-83
2021/12/23 04:19:51;;;;;;;29.00;20.20;;;-0.10;99.90;;;;;;5005440;28;20047;-83
2021/12/23 04:22:17;;;;;;;28.88;20.80;;;-0.10;99.90;;;;;;5024284;28;20496;-83
2021/12/23 04:24:43;;;;;;;29.27;20.13;;;-0.10;99.90;;;;;;5002558;28;20044;-83
2021/12/23 04:27:09;;;;;;;29.48;20.10;;;-0.10;99.90;;;;;;4998390;28;20047;-83
2021/12/23 04:29:35;;;;;;;26.35;20.17;;;-0.10;99.90;;;;;;5002124;28;20248;-82
2021/12/23 04:32:01;;;;;;;29.73;21.50;;;-0.10;99.90;;;;;;4978330;28;20397;-82
2021/12/23 04:34:27;;;;;;;27.95;19.95;;;-0.10;99.90;;;;;;5000659;28;20032;-83
2021/12/23 04:36:53;;;;;;;31.58;21.35;;;0.00;99.90;;;;;;4981115;28;20339;-83
2021/12/23 04:39:19;;;;;;;30.23;20.58;;;-0.10;99.90;;;;;;4999730;28;20082;-82
2021/12/23 04:41:45;;;;;;;28.15;20.27;;;-0.10;99.90;;;;;;4998751;28;20769;-83
2021/12/23 04:44:11;;;;;;;30.92;20.90;;;-0.10;99.90;;;;;;4998946;28;20147;-82
2021/12/23 04:46:37;;;;;;;30.08;20.15;;;-0.10;99.90;;;;;;5004536;28;20098;-82
2021/12/23 04:49:04;;;;;;;28.33;20.63;;;0.00;99.90;;;;;;5001024;28;20950;-83
2021/12/23 04:51:30;;;;;;;29.08;20.45;;;0.00;99.90;;;;;;5003126;28;20561;-83
2021/12/23 04:53:56;;;;;;;26.23;19.08;;;-0.10;99.90;;;;;;4998279;28;20048;-83
2021/12/23 04:56:22;;;;;;;27.90;19.63;;;0.00;99.90;;;;;;4983063;28;20810;-83
2021/12/23 04:58:47;;;;;;;30.20;21.33;;;0.00;99.90;;;;;;5008761;28;20062;-82
2021/12/23 05:01:20;;;;;;;29.20;20.65;;;0.10;99.90;;;;;;4997841;28;21071;-83
2021/12/23 05:03:47;;;;;;;29.13;20.17;;;0.00;99.90;;;;;;5007470;28;20457;-83
2021/12/23 05:06:15;;;;;;;29.20;20.70;;;0.00;99.90;;;;;;4997119;28;20075;-82
2021/12/23 05:08:40;;;;;;;29.52;21.52;;;-0.10;99.90;;;;;;4984798;28;20055;-83
2021/12/23 05:11:06;;;;;;;28.80;20.30;;;0.00;99.90;;;;;;4999330;28;20055;-83
2021/12/23 05:13:32;;;;;;;27.80;19.30;;;0.00;99.90;;;;;;4997876;28;20208;-83
2021/12/23 05:15:58;;;;;;;31.33;21.50;;;0.00;99.90;;;;;;5009059;28;20527;-83
2021/12/23 05:18:23;;;;;;;26.77;19.50;;;0.00;99.90;;;;;;5006438;28;20138;-83
2021/12/23 05:20:49;;;;;;;29.30;19.17;;;0.00;99.90;;;;;;5004125;28;20477;-82
2021/12/23 05:23:16;;;;;;;29.95;20.98;;;0.00;99.90;;;;;;5006301;28;20035;-83
2021/12/23 05:25:42;;;;;;;29.30;20.40;;;0.00;99.90;;;;;;4982026;28;20150;-83
2021/12/23 05:28:07;;;;;;;29.17;20.70;;;0.00;99.90;;;;;;4986595;28;20316;-83
2021/12/23 05:30:33;;;;;;;29.15;20.85;;;0.00;99.90;;;;;;4984677;28;20393;-83
2021/12/23 05:32:59;;;;;;;29.50;21.13;;;0.10;99.90;;;;;;4974018;28;20857;-83
2021/12/23 05:35:25;;;;;;;28.58;20.77;;;0.20;99.90;;;;;;4960895;28;20376;-83
2021/12/23 05:37:52;;;;;;;30.55;20.13;;;0.10;99.90;;;;;;4983378;28;20046;-83
2021/12/23 05:40:21;;;;;;;28.85;21.15;;;0.10;99.90;;;;;;4989251;28;20036;-83
2021/12/23 05:42:47;;;;;;;30.02;20.70;;;0.20;99.90;;;;;;4986987;28;21051;-83
2021/12/23 05:45:14;;;;;;;31.10;21.63;;;0.10;99.90;;;;;;4988726;28;20055;-83
2021/12/23 05:47:41;;;;;;;32.35;21.48;;;0.20;99.90;;;;;;4985895;28;20040;-83
2021/12/23 05:50:08;;;;;;;34.53;21.80;;;0.30;99.90;;;;;;4981422;28;20050;-83
2021/12/23 05:52:35;;;;;;;31.48;21.98;;;0.20;99.90;;;;;;4966968;28;20202;-83
2021/12/23 05:55:02;;;;;;;30.02;21.00;;;0.20;99.90;;;;;;4993440;28;20198;-83
2021/12/23 05:57:29;;;;;;;27.58;20.25;;;0.10;99.90;;;;;;4983250;28;20604;-84
2021/12/23 05:59:55;;;;;;;31.02;20.15;;;0.10;99.90;;;;;;4971435;28;20720;-83
2021/12/23 06:02:21;;;;;;;28.45;20.08;;;0.10;99.90;;;;;;4993536;28;20754;-83
2021/12/23 06:04:46;;;;;;;33.55;21.25;;;0.10;99.90;;;;;;4967813;28;20101;-83
2021/12/23 06:07:12;;;;;;;29.08;21.63;;;0.10;99.90;;;;;;4978787;28;20051;-83
2021/12/23 06:09:38;;;;;;;30.00;20.52;;;0.10;99.90;;;;;;4975094;28;20054;-83
2021/12/23 06:12:04;;;;;;;29.52;21.15;;;0.20;99.90;;;;;;4994321;28;20054;-83
2021/12/23 06:14:30;;;;;;;32.85;21.40;;;0.20;99.90;;;;;;4994084;28;20051;-83
2021/12/23 06:16:56;;;;;;;27.90;20.67;;;0.20;99.90;;;;;;4995886;28;20127;-83
2021/12/23 06:19:22;;;;;;;30.90;21.27;;;0.30;99.90;;;;;;4990901;28;20046;-83
2021/12/23 06:21:48;;;;;;;29.75;21.50;;;0.30;99.90;;;;;;4980076;28;20452;-83
2021/12/23 06:24:14;;;;;;;30.25;20.58;;;0.20;99.90;;;;;;4997793;28;20059;-82
2021/12/23 06:26:40;;;;;;;30.85;20.73;;;0.30;99.90;;;;;;4980788;28;20047;-83
2021/12/23 06:29:06;;;;;;;30.80;19.25;;;0.20;99.90;;;;;;5013228;28;20576;-83
2021/12/23 06:31:32;;;;;;;28.77;20.65;;;0.10;99.90;;;;;;4994358;28;20055;-83
2021/12/23 06:33:58;;;;;;;30.40;21.10;;;0.20;99.90;;;;;;4998498;28;20043;-83
2021/12/23 06:36:24;;;;;;;30.88;20.90;;;0.20;99.90;;;;;;4976104;28;20117;-83
2021/12/23 06:38:50;;;;;;;28.88;20.92;;;0.30;99.90;;;;;;5000167;28;20082;-83
2021/12/23 06:41:17;;;;;;;30.60;22.38;;;0.30;99.90;;;;;;4985296;28;20262;-82
2021/12/23 06:43:43;;;;;;;31.27;22.45;;;0.30;99.90;;;;;;5000012;28;20136;-83
2021/12/23 06:46:09;;;;;;;34.58;22.73;;;0.30;99.90;;;;;;5001191;28;20468;-82
2021/12/23 06:48:35;;;;;;;33.63;22.92;;;0.30;99.90;;;;;;4977599;28;20051;-82
2021/12/23 06:51:01;;;;;;;35.22;24.13;;;0.30;99.90;;;;;;5013135;28;20043;-83
2021/12/23 06:53:28;;;;;;;31.42;22.08;;;0.30;99.90;;;;;;5021161;28;20040;-83
2021/12/23 06:55:55;;;;;;;29.75;20.75;;;0.30;99.90;;;;;;5003813;28;20065;-84
2021/12/23 06:58:23;;;;;;;33.28;23.27;;;0.30;99.90;;;;;;4978743;28;20055;-83
2021/12/23 07:00:50;;;;;;;31.27;22.35;;;0.30;99.90;;;;;;5006027;28;20631;-83
2021/12/23 07:03:16;;;;;;;30.92;21.20;;;0.30;99.90;;;;;;5002029;28;20043;-82
2021/12/23 07:05:42;;;;;;;38.20;22.48;;;0.30;99.90;;;;;;5000604;28;20788;-83
2021/12/23 07:08:13;;;;;;;32.30;22.58;;;0.30;99.90;;;;;;5003682;28;20148;-84
2021/12/23 07:10:39;;;;;;;31.13;22.38;;;0.30;99.90;;;;;;4999673;28;20044;-83
2021/12/23 07:13:05;;;;;;;33.80;23.13;;;0.30;99.90;;;;;;4982780;28;20608;-83
2021/12/23 07:15:32;;;;;;;34.45;23.83;;;0.30;99.90;;;;;;4990512;28;20050;-83
2021/12/23 07:17:59;;;;;;;37.28;24.35;;;0.30;99.90;;;;;;5020471;28;20055;-83
2021/12/23 07:20:29;;;;;;;36.38;25.20;;;0.40;99.90;;;;;;4979950;28;20055;-84
2021/12/23 07:22:55;;;;;;;34.63;23.77;;;0.40;99.90;;;;;;5001964;28;20370;-83
2021/12/23 07:25:21;;;;;;;37.22;25.30;;;0.40;99.90;;;;;;4984537;28;20513;-81
2021/12/23 07:27:47;;;;;;;32.30;23.70;;;0.40;99.90;;;;;;4997330;28;20047;-83
2021/12/23 07:30:18;;;;;;;34.42;24.33;;;0.40;99.90;;;;;;4979684;28;20083;-85
2021/12/23 07:32:44;;;;;;;36.38;24.60;;;0.40;99.90;;;;;;5004587;28;20058;-84
2021/12/23 07:35:11;;;;;;;33.65;23.85;;;0.40;99.90;;;;;;5001546;28;20044;-83
2021/12/23 07:37:37;;;;;;;41.00;24.23;;;0.40;99.90;;;;;;4998920;28;20522;-84
2021/12/23 07:40:06;;;;;;;35.33;25.00;;;0.30;99.90;;;;;;4994826;28;20571;-83
2021/12/23 07:42:33;;;;;;;34.90;24.05;;;0.30;99.90;;;;;;4972908;28;20252;-84
2021/12/23 07:45:05;;;;;;;36.50;24.10;;;0.30;99.90;;;;;;5000595;28;20067;-84
2021/12/23 07:47:31;;;;;;;35.85;24.05;;;0.30;99.90;;;;;;4983980;28;20439;-83
2021/12/23 07:49:58;;;;;;;35.40;24.40;;;0.40;99.90;;;;;;5019288;28;20089;-83
2021/12/23 07:52:24;;;;;;;41.28;26.08;;;0.40;99.90;;;;;;4999070;28;20103;-83
2021/12/23 07:54:52;;;;;;;35.30;24.80;;;0.40;99.90;;;;;;4999729;28;20126;-85
2021/12/23 07:57:17;;;;;;;38.30;26.38;;;0.40;99.90;;;;;;5006425;28;20086;-82
2021/12/23 07:59:43;;;;;;;35.30;24.83;;;0.40;99.90;;;;;;5004653;28;20044;-83
2021/12/23 08:02:09;;;;;;;36.38;25.80;;;0.40;99.90;;;;;;4999414;28;20159;-83
2021/12/23 08:04:37;;;;;;;38.35;26.98;;;0.40;99.90;;;;;;4999834;28;20063;-84
2021/12/23 08:07:03;;;;;;;39.58;27.17;;;0.40;99.90;;;;;;5000809;28;20058;-82
2021/12/23 08:09:29;;;;;;;40.58;27.27;;;0.50;99.90;;;;;;4996119;28;20192;-82
2021/12/23 08:11:56;;;;;;;44.58;28.58;;;0.50;99.90;;;;;;4998411;28;20437;-83
2021/12/23 08:14:25;;;;;;;39.67;27.38;;;0.50;99.90;;;;;;5031719;28;20048;-79
2021/12/23 08:16:50;;;;;;;39.72;27.92;;;0.50;99.90;;;;;;4994305;28;20043;-79
2021/12/23 08:19:16;;;;;;;40.90;28.65;;;0.50;99.90;;;;;;5018300;28;20086;-84
2021/12/23 08:21:42;;;;;;;43.67;28.90;;;0.50;99.90;;;;;;4999454;28;20079;-82
2021/12/23 08:24:08;;;;;;;44.80;29.08;;;0.50;99.90;;;;;;4996915;28;20071;-83
2021/12/23 08:26:40;;;;;;;43.13;28.95;;;0.60;99.90;;;;;;4995337;28;20291;-81
2021/12/23 08:29:07;;;;;;;43.03;28.85;;;0.50;99.90;;;;;;4999061;28;20252;-82
2021/12/23 08:31:34;;;;;;;42.38;29.75;;;0.60;99.90;;;;;;4982623;28;20630;-80
2021/12/23 08:34:00;;;;;;;44.53;29.58;;;0.60;99.90;;;;;;4996195;28;20489;-82
2021/12/23 08:36:26;;;;;;;48.75;30.83;;;0.60;99.90;;;;;;4995733;28;20079;-83
2021/12/23 08:38:52;;;;;;;53.72;32.75;;;0.60;99.90;;;;;;4975473;28;20587;-83
2021/12/23 08:41:18;;;;;;;47.20;31.52;;;0.70;99.90;;;;;;4998379;28;20058;-79
2021/12/23 08:43:44;;;;;;;47.85;31.10;;;0.70;99.90;;;;;;5012821;28;20552;-81
2021/12/23 08:46:11;;;;;;;47.47;31.63;;;0.60;99.90;;;;;;4996358;28;20075;-80
2021/12/23 08:48:37;;;;;;;49.28;32.35;;;0.70;99.90;;;;;;4992250;28;20043;-79
2021/12/23 08:51:03;;;;;;;53.88;32.70;;;0.70;99.90;;;;;;4983086;28;20120;-80
2021/12/23 08:53:29;;;;;;;49.70;32.47;;;0.70;99.90;;;;;;4996568;28;20059;-80
2021/12/23 08:55:55;;;;;;;50.83;31.95;;;0.70;99.90;;;;;;4998366;28;20051;-80
2021/12/23 08:58:21;;;;;;;52.78;32.72;;;0.70;99.90;;;;;;4999136;28;20452;-83
2021/12/23 09:00:47;;;;;;;47.40;30.85;;;0.70;99.90;;;;;;4992733;28;20127;-80
2021/12/23 09:03:13;;;;;;;50.33;32.28;;;0.70;99.90;;;;;;4995591;28;20150;-83
2021/12/23 09:05:41;;;;;;;48.22;30.77;;;0.70;99.90;;;;;;4994923;28;20043;-81
2021/12/23 09:08:08;;;;;;;49.72;33.03;;;0.70;99.90;;;;;;4999685;28;20130;-84
2021/12/23 09:10:35;;;;;;;50.05;32.53;;;0.70;99.90;;;;;;4996712;28;20945;-83
2021/12/23 09:13:01;;;;;;;50.75;32.28;;;0.70;99.90;;;;;;4978430;28;20043;-81
2021/12/23 09:15:27;;;;;;;52.92;31.55;;;0.70;99.90;;;;;;4992721;28;20043;-82
2021/12/23 09:17:54;;;;;;;53.53;32.63;;;0.70;99.90;;;;;;4999889;28;20075;-82
2021/12/23 09:20:21;;;;;;;57.67;33.63;;;0.70;99.90;;;;;;5000505;28;20050;-81
2021/12/23 09:22:48;;;;;;;50.97;32.13;;;0.70;99.90;;;;;;4997471;28;20035;-81
2021/12/23 09:25:23;;;;;;;50.25;31.98;;;0.70;99.90;;;;;;5015381;28;20059;-81
2021/12/23 09:28:08;;;;;;;52.95;32.58;;;0.70;99.90;;;;;;4977043;28;20051;-81
2021/12/23 09:33:20;;;;;;;52.28;33.13;;;0.70;99.90;;;;;;4983763;28;20549;-82
2021/12/23 09:35:46;;;;;;;54.92;34.97;;;0.70;99.90;;;;;;5000625;28;20400;-84
2021/12/23 09:38:13;;;;;;;54.53;34.20;;;0.80;99.90;;;;;;4977398;28;20048;-82
2021/12/23 09:40:40;;;;;;;53.58;34.38;;;0.80;99.90;;;;;;4982651;28;20307;-79
2021/12/23 09:43:11;;;;;;;61.60;36.78;;;0.90;99.90;;;;;;5014442;28;20366;-81
2021/12/23 09:45:40;;;;;;;57.92;37.05;;;0.80;99.90;;;;;;4993645;28;20093;-82
2021/12/23 09:48:06;;;;;;;59.53;37.55;;;0.80;99.90;;;;;;4996785;28;20050;-82
2021/12/23 09:50:40;;;;;;;62.03;37.42;;;0.80;99.90;;;;;;4997634;28;20127;-81
2021/12/23 09:53:07;;;;;;;59.95;36.47;;;0.90;99.90;;;;;;5000756;28;20048;-77
2021/12/23 09:55:35;;;;;;;56.08;34.92;;;0.90;99.90;;;;;;5000179;28;20374;-77
2021/12/23 09:58:01;;;;;;;58.28;35.50;;;0.90;99.90;;;;;;4999086;28;20767;-77
2021/12/23 10:00:32;;;;;;;54.60;34.28;;;0.90;99.90;;;;;;4998865;28;20101;-82
2021/12/23 10:02:58;;;;;;;57.70;35.35;;;0.90;99.90;;;;;;5003351;28;20146;-81
2021/12/23 10:05:27;;;;;;;59.03;34.65;;;1.00;99.90;;;;;;5007261;28;20055;-80
2021/12/23 10:07:55;;;;;;;58.40;35.38;;;1.00;99.90;;;;;;4999431;28;20059;-78
2021/12/23 10:10:34;;;;;;;58.03;34.47;;;1.00;99.90;;;;;;5006099;28;20040;-81
2021/12/23 10:38:32;;;;;;;57.92;35.85;;;1.10;99.90;;;;;;5001950;28;20579;-82
2021/12/23 10:41:09;;;;;;;67.88;36.10;;;1.10;99.90;;;;;;5003406;28;20763;-81
2021/12/23 10:43:45;;;;;;;61.13;35.97;;;1.10;99.90;;;;;;5009310;28;20047;-81
2021/12/23 10:46:20;;;;;;;62.92;38.00;;;1.20;99.90;;;;;;4994510;28;20554;-82
2021/12/23 10:49:08;;;;;;;62.70;36.15;;;1.10;99.90;;;;;;5018481;28;20048;-81
2021/12/23 10:52:04;;;;;;;63.25;36.30;;;1.20;99.90;;;;;;4997700;28;20272;-81
2021/12/23 11:00:33;;;;;;;65.50;37.53;;;1.10;99.90;;;;;;5001347;28;20051;-81
2021/12/23 11:06:12;;;;;;;69.80;38.45;;;1.10;99.90;;;;;;5018940;28;20551;-80
2021/12/23 11:08:58;;;;;;;68.22;39.08;;;1.10;99.90;;;;;;5013180;28;20909;-81
2021/12/23 11:28:21;;;;;;;66.63;37.25;;;1.10;99.90;;;;;;4994634;28;20512;-79
2021/12/23 11:43:59;;;;;;;67.18;37.38;;;1.30;99.90;;;;;;5003245;28;20051;-81
2021/12/23 11:46:48;;;;;;;62.63;37.25;;;1.30;99.90;;;;;;5018703;28;20374;-80
2021/12/23 11:49:16;;;;;;;63.25;36.15;;;1.40;99.90;;;;;;4991944;28;20054;-81
2021/12/23 11:54:34;;;;;;;67.05;37.70;;;1.30;99.90;;;;;;4996821;28;20059;-81
2021/12/23 11:57:06;;;;;;;63.78;36.38;;;1.40;99.90;;;;;;5007215;28;20052;-80
2021/12/23 11:59:36;;;;;;;61.53;36.28;;;1.40;99.90;;;;;;4998260;28;20488;-81
2021/12/23 12:02:10;;;;;;;62.05;36.47;;;1.50;99.90;;;;;;4990387;28;20058;-81
2021/12/23 12:04:37;;;;;;;65.32;37.10;;;1.30;99.90;;;;;;4985200;28;20400;-82
2021/12/23 12:07:15;;;;;;;62.30;36.78;;;1.30;99.90;;;;;;4996618;28;20545;-82
2021/12/23 12:10:01;;;;;;;64.00;36.80;;;1.40;99.90;;;;;;4986198;28;20047;-81
2021/12/23 12:12:30;;;;;;;63.67;36.65;;;1.30;99.90;;;;;;4994346;28;20073;-81
2021/12/23 12:14:57;;;;;;;62.33;36.00;;;1.30;99.90;;;;;;4995294;28;20085;-81
2021/12/23 12:17:26;;;;;;;66.53;37.15;;;1.30;99.90;;;;;;4992111;28;20052;-81
2021/12/23 12:20:04;;;;;;;60.75;36.13;;;1.40;99.90;;;;;;4993057;28;20112;-81
2021/12/23 12:22:49;;;;;;;67.43;38.25;;;1.40;99.90;;;;;;4990376;28;20056;-81
2021/12/23 12:25:24;;;;;;;65.88;36.95;;;1.40;99.90;;;;;;4993061;28;20106;-80
2021/12/23 12:27:51;;;;;;;65.50;37.05;;;1.40;99.90;;;;;;4989145;28;20059;-81
2021/12/23 12:30:21;;;;;;;63.60;36.22;;;1.40;99.90;;;;;;4983562;28;20043;-81
2021/12/23 12:32:47;;;;;;;67.10;37.88;;;1.40;99.90;;;;;;5023514;28;20050;-81
2021/12/23 12:35:20;;;;;;;70.20;38.72;;;1.40;99.90;;;;;;4999924;28;20436;-80
2021/12/23 12:37:51;;;;;;;68.15;38.38;;;1.40;99.90;;;;;;5005645;28;20051;-81
2021/12/23 12:40:17;;;;;;;66.05;36.45;;;1.40;99.90;;;;;;5001934;28;20940;-82
2021/12/23 12:42:47;;;;;;;66.13;38.08;;;1.40;99.90;;;;;;5008301;28;20470;-81
2021/12/23 12:45:24;;;;;;;62.47;36.13;;;1.40;99.90;;;;;;5005721;28;20424;-81
2021/12/23 12:47:56;;;;;;;69.57;36.60;;;1.40;99.90;;;;;;4999914;28;20043;-82
2021/12/23 12:50:27;;;;;;;65.35;36.75;;;1.40;99.90;;;;;;5004904;28;20047;-82
2021/12/23 12:53:00;;;;;;;65.57;37.05;;;1.50;99.90;;;;;;5007608;28;20564;-82
2021/12/23 12:55:27;;;;;;;63.88;37.20;;;1.50;99.90;;;;;;5006531;28;20359;-81
2021/12/23 12:58:01;;;;;;;65.28;37.90;;;1.50;99.90;;;;;;5008878;28;20548;-81
2021/12/23 13:00:39;;;;;;;;;;;1.50;99.90;;;;;;5008153;28;20681;-81
2021/12/23 13:03:13;;;;;;;61.90;37.22;;;1.60;99.90;;;;;;5008628;28;19934;-81
2021/12/23 13:05:44;;;;;;;68.97;39.00;;;1.50;99.90;;;;;;5006402;28;20831;-80
2021/12/23 13:08:33;;;;;;;62.38;37.05;;;1.60;99.90;;;;;;5003712;28;20056;-81
2021/12/23 13:11:08;;;;;;;66.00;37.95;;;1.60;99.90;;;;;;5021074;28;20854;-81
2021/12/23 13:13:42;;;;;;;64.38;37.50;;;1.50;99.90;;;;;;4985299;28;20059;-81
2021/12/23 13:16:24;;;;;;;64.90;35.88;;;1.60;99.90;;;;;;5001990;28;20524;-82
2021/12/23 13:19:12;;;;;;;64.73;37.17;;;1.50;99.90;;;;;;5006667;28;20272;-82
2021/12/23 13:21:42;;;;;;;63.72;35.60;;;1.50;99.90;;;;;;5011787;28;20406;-82
2021/12/23 13:24:13;;;;;;;62.78;36.47;;;1.60;99.90;;;;;;5010397;28;20858;-82
2021/12/23 13:26:39;;;;;;;61.40;35.38;;;1.60;99.90;;;;;;5006434;28;20889;-82
2021/12/23 13:29:08;;;;;;;60.20;35.42;;;1.60;99.90;;;;;;5009974;28;20225;-82
2021/12/23 13:31:36;;;;;;;61.72;37.15;;;1.50;99.90;;;;;;4985818;28;20097;-82
2021/12/23 13:34:09;;;;;;;64.40;36.42;;;1.50;99.90;;;;;;5006992;28;20083;-83
2021/12/23 13:36:47;;;;;;;61.10;35.85;;;1.50;99.90;;;;;;5006194;28;20491;-81
2021/12/23 13:39:19;;;;;;;60.53;35.42;;;1.60;99.90;;;;;;5009311;28;20047;-84
2021/12/23 13:41:52;;;;;;;65.88;37.00;;;1.60;99.90;;;;;;5006904;28;20228;-82
2021/12/23 13:44:21;;;;;;;61.00;35.28;;;1.60;99.90;;;;;;5004463;28;20777;-81
2021/12/23 13:47:06;;;;;;;59.42;35.35;;;1.60;99.90;;;;;;5004491;28;20051;-81
2021/12/23 13:49:36;;;;;;;63.63;35.63;;;1.60;99.90;;;;;;5010045;28;20074;-81
2021/12/23 13:52:04;;;;;;;62.55;35.78;;;1.60;99.90;;;;;;5005766;28;20142;-81
2021/12/23 13:54:39;;;;;;;68.97;37.15;;;1.50;99.90;;;;;;5009272;28;20060;-78
2021/12/23 13:57:15;;;;;;;59.97;34.50;;;1.50;99.90;;;;;;5009170;28;20055;-81
2021/12/23 13:59:42;;;;;;;60.15;35.85;;;1.60;99.90;;;;;;5012044;28;20580;-80